Terminal Aerodrome Forecast
Issued by NWS

Home | Current Version | Previous Version | Text Only | Print | Product List | Glossary On
Versions: 1 2 3 4 5 6 7 8 9 10 11 12 13 14
000
FTUS45 KBOU 270535
TAFBJC
TAF
KBJC 270535Z 2706/2806 25007KT P6SM BKN180
     FM271500 VRB06KT P6SM SCT220
     FM271900 12008KT P6SM FEW100 SCT220
     FM272100 12010KT P6SM FEW100 SCT220
     FM280200 07008KT P6SM FEW100 SCT150 BKN220=

USA.gov is the U.S. government's official web portal to all federal, state and local government web resources and services.